White Lake charter Township, MI

8:10 AM EDT on March 31, 2015 (GMT -0400)
White Lake, MI | | Change Station
CLOSE
Current Station
Personal Weather Station
Location: White Lake Township, MI
Elevation: 1050 ft
Nearby Weather Stations

Elev 1050 ft 42.67 °N, 83.50 °W | Updated 4 minutes ago

Overcast
Overcast
31.9 °F
Feels Like 32 °F
N
2.0
Wind Variable Wind from NE
Gusts 2.0 mph

Today
High -- | Low -- °F
--% Chance of Precip.
Yesterday
High -- | Low -- °F
Precip. -- in
7:18 AM 7:58 PM
Waxing Gibbous, 86% visible
Pressure 29.75 in
Visibility 3.0 miles
Clouds Overcast 300 ft
Windchill 32 °F
Dew Point 31 °F
Humidity 97%
Rainfall 0.02 in
Snow Depth Not available.
UV 0 out of 12
Pollen 1.60 out of 12
Air Quality Not available.
Flu Activity Not available.
METAR KPTK 311153Z 06011KT 3SM BR OVC003 00/M01 A2972 RMK AO2 RAE02SNE02 SLP073 4/001 P0000 60031 70031 I6002 T00001006 10017 21006 55016

More Conditions Fewer Conditions

Pressure 29.75 in
Visibility 3.0 miles
Clouds Overcast 300 ft
Windchill 32 °F
Dew Point 31 °F
Humidity 97%
Rainfall 0.02 in
Snow Depth Not available.
UV 0 out of 12
Pollen 1.60 out of 12
Air Quality Not available.
Flu Activity Not available.
METAR KPTK 311153Z 06011KT 3SM BR OVC003 00/M01 A2972 RMK AO2 RAE02SNE02 SLP073 4/001 P0000 60031 70031 I6002 T00001006 10017 21006 55016

More Conditions Fewer Conditions

10-Day Weather Forecast

Almanac

Astronomy

Mar. 31, 2015 Rise Set
Actual Time
Civil Twilight
Nautical Twilight
Astronomical Twilight
Moon
Length of Visible Light
Length of Day
Tomorrow will be .
, % of the Moon is Illuminated

Today's Extremes

State Highs State Lows

Community

WunderPhotos

Upload Photos

1,809,750 photos uploaded!

WunderBlogs® & News

Nearby

Air Quality

  Air Quality AQ Index Pollutant
Not available.

Snow Depth

Station Depth Elevation

Earthquake Activity

City Distance Mag. Time & Date
Minimum magnitude displayed is 2.5.

Coastal Water Temperatures

Place Temperature

Stations

Nearby Weather Stations

Station Location Temp. Windchill Dew Point Humidity Wind Precip. Elev Updated Type